Flight Track Log - Related Links

Times and Time Zones

All times are in EDT time to prevent confusion due to time zone crossing. See the EJA695 flight status page for this flight to view local times or setup timezone preferences in your user account.

Time Position Orientation Groundspeed Altitude Reporting Facility
EDT Latitude Longitude Course Direction KTS MPH feet Rate Location/Type
Fri 10:54:40 AM 41.2011 -70.2247 249° West 224 258 4,100  Level Boston Center
Fri 10:55:40 AM 41.2356 -70.2789 310° West 226 260 6,200 2,450 Climbing Boston Center
Fri 10:56:40 AM 41.3086 -70.2792 360° North 187 215 9,000 2,750 Climbing Boston Center
Fri 10:57:40 AM 41.3372 -70.3667 294° West 217 250 11,700 2,350 Climbing Boston Center
Fri 10:58:40 AM 41.3139 -70.4614 252° West 228 262 13,700 2,100 Climbing Boston Center
Fri 10:59:00 AM 41.3512 -70.7768 256° West  Level FlightAware Approximate
Fri 10:59:40 AM 41.2697 -70.5539 238° Southwest 261 300 15,900  Level Boston Center
Fri 11:00:00 AM 41.3177 -70.8962 249° West  Level FlightAware Approximate
Fri 11:00:40 AM 41.2297 -70.6597 243° Southwest 294 338 17,600  Level Boston Center
Fri 11:01:40 AM 41.1833 -70.7606 239° Southwest 318 366 19,500 1,950 Climbing Boston Center
Fri 11:02:40 AM 41.1369 -70.8636 239° Southwest 328 377 21,500 1,950 Climbing Boston Center
Fri 11:03:40 AM 41.0925 -70.9667 240° Southwest 328 377 23,400 1,900 Climbing Boston Center
Fri 11:04:40 AM 41.0478 -71.0722 241° Southwest 328 377 25,300 1,300 Climbing Boston Center
Fri 11:05:40 AM 40.9992 -71.1806 239° Southwest 334 384 26,000 350 Climbing Boston Center
Fri 11:06:40 AM 40.9481 -71.2778 235° Southwest 348 400 26,000  Level Boston Center
Fri 11:07:52 AM 40.8931 -71.3994 239° Southwest 372 428 26,000  Level Boston Center
Fri 11:08:52 AM 40.8378 -71.5239 240° Southwest 384 442 26,000  Level Boston Center
Fri 11:09:52 AM 40.7703 -71.6919 242° Southwest 401 461 26,000  Level Boston Center
Fri 11:10:52 AM 40.7147 -71.7967 235° Southwest 401 461 26,000  Level Boston Center
Fri 11:11:52 AM 40.6694 -71.8903 237° Southwest 395 455 26,000  Level Boston Center
Fri 11:12:52 AM 40.6033 -72.0411 240° Southwest 395 455 26,000  Level Boston Center
Fri 11:13:52 AM 40.5475 -72.1614 239° Southwest 395 455 26,000 -550 Level Boston Center
Fri 11:14:52 AM 40.4894 -72.2844 238° Southwest 395 455 24,900 -1,724 Descending Boston Center
Fri 11:16:46 AM 40.3822 -72.5178 239° Southwest 393 452 21,000 -2,034 Descending New York Center
Fri 11:17:46 AM 40.3283 -72.6361 239° Southwest 388 447 19,000 -1,983 Descending New York Center
Fri 11:18:47 AM 40.2764 -72.7489 239° Southwest 382 440 17,000 -1,537 Descending New York Center
Fri 11:19:47 AM 40.2244 -72.8614 239° Southwest 370 426 15,900 -545 Descending New York Center
Fri 11:20:48 AM 40.1706 -72.9686 237° Southwest 365 420 15,900 -712 Level New York Center
Fri 11:21:45 AM 40.1019 -73.0614 226° Southwest 365 420 14,500 -1,475 Descending New York Center
Fri 11:22:46 AM 40.0333 -73.1567 227° Southwest 343 395 13,000 -1,339 Descending New York Center
Fri 11:23:46 AM 39.9756 -73.2358 226° Southwest 338 389 11,800 -1,289 Descending New York Center
Fri 11:24:47 AM 39.9111 -73.3203 225° Southwest 338 389 10,400 -1,438 Descending New York Center
Fri 11:25:47 AM 39.8575 -73.3939 227° Southwest 322 371 8,900 -1,600 Descending New York Center
Fri 11:26:47 AM 39.8406 -73.4933 258° West 259 298 7,200 -1,587 Descending New York Center
Fri 11:27:48 AM 39.8614 -73.5861 286° West 249 287 5,700 -1,438 Descending New York Center
Fri 11:28:48 AM 39.8928 -73.6658 297° West 256 295 4,300 -915 Descending New York Center
Fri 11:29:46 AM 39.9325 -73.7378 306° West 251 289 3,900 -153 Descending New York Center
Fri 11:30:46 AM 39.9703 -73.8072 305° West 251 289 4,000 -450 Climbing New York Center
Fri 11:31:46 AM 40.0183 -73.8878 308° West 251 289 3,000 -992 Descending New York Center
Fri 11:32:47 AM 40.0625 -73.9522 312° West 246 283 2,000 -496 Descending New York Center
Fri 11:33:47 AM 40.1006 -74.0083 312° West 236 272 2,000 992 Level New York Center
Fri 11:34:48 AM 40.1406 -74.0697 310° West 236 272 4,000 992 Climbing New York Center
Fri 11:35:48 AM 40.1803 -74.1342 309° West 236 272 4,000  Level New York Center
Fri 11:36:46 AM 40.2203 -74.1958 310° West 236 272 4,000  Level New York Center
Fri 11:37:46 AM 40.2442 -74.2353 308° West 236 272 4,000  Level New York Center
Fri 11:39:48 AM 40.2442 -74.2353 153° Southeast 236 272 4,000  Level New York Center
Fri 11:41:45 AM 40.2442 -74.2353 153° Southeast 236 272 4,000  Level New York Center
Fri 11:43:00 AM 40.1833 -74.1167 119° Southeast  Level FlightAware Approximate
Fri 11:50:00 AM 40.1867 -74.1246 119° Southeast  Level Estimated
Fri 11:51:00 AM 40.1833 -74.1167 119° Southeast  Level FlightAware Approximate
Fri 11:52:00 AM 40.1867 -74.1246 119° Southeast  Level Estimated
Fri 11:53:00 AM 40.1833 -74.1167 119° Southeast  Level FlightAware Approximate
Fri 11:54:00 AM 40.1867 -74.1246 119° Southeast  Level Estimated

Login

Don't have an account? Register now (free) for customized features, flight alerts, and more!